Flight Track Log - Related Links

Times and Time Zones

All times are in EST time to prevent confusion due to time zone crossing. See the UPS2054 flight status page for this flight to view local times or setup timezone preferences in your user account.


Time Position Orientation Groundspeed Altitude Reporting Facility
EST Latitude Longitude Course Direction KTS MPH feet Rate Location/Type
Thu 04:51:13 PM 38.1000 -85.7333 62° Northeast 216 249 3,900  Level Louisville TRACON
Thu 04:51:47 PM 38.0767 -85.7092 141° Southeast 231 266 4,700 2,375 Climbing Indianapolis Center
Thu 04:52:49 PM 38.0769 -85.6064 90° East 295 339 7,700 2,758 Climbing Indianapolis Center
Thu 04:53:51 PM 38.0719 -85.4992 93° East 303 349 10,400 2,323 Climbing Indianapolis Center
Thu 04:54:53 PM 38.0725 -85.3703 90° East 362 417 12,500 2,419 Climbing Indianapolis Center
Thu 04:55:00 PM 38.3075 -85.2180 99° East  Level Estimated
Thu 04:55:55 PM 38.0650 -85.2292 94° East 398 458 15,400  Level Indianapolis Center
Thu 04:56:00 PM 38.3634 -85.0853 62° Northeast  Level Estimated
Thu 04:56:57 PM 38.0403 -85.0492 100° East 427 491 19,000  Level Indianapolis Center
Thu 05:02:25 PM 37.9267 -84.1194 100° East 517 595 31,600 2,226 Climbing FlightAware ADS-B
Thu 05:03:36 PM 37.9445 -83.9024 84° East 518 596 33,800 605 Climbing FlightAware ADS-B
Thu 05:08:02 PM 38.1044 -83.1167 75° East 513 590 35,000 258 Climbing FlightAware ADS-B
Thu 05:08:15 PM 38.1138 -83.0816 71° East 510 587 35,000  Level FlightAware ADS-B
Thu 05:08:38 PM 38.1362 -83.0183 66° East 507 583 35,000  Level FlightAware ADS-B
Thu 05:09:22 PM 38.1853 -82.9206 66° East 507 583 35,000  Level Indianapolis Center
Thu 05:10:24 PM 38.2694 -82.7806 53° Northeast 497 572 35,000  Level Indianapolis Center
Thu 05:11:26 PM 38.3533 -82.6389 53° Northeast 499 574 35,000  Level Indianapolis Center
Thu 05:12:28 PM 38.4469 -82.4819 53° Northeast 499 574 35,000  Level Indianapolis Center
Thu 05:13:30 PM 38.5297 -82.3397 53° Northeast 497 572 35,000  Level Indianapolis Center
Thu 05:14:32 PM 38.6147 -82.1975 53° Northeast 499 574 35,000  Level Indianapolis Center
Thu 05:15:34 PM 38.6986 -82.0531 53° Northeast 502 578 35,000  Level Indianapolis Center
Thu 05:16:37 PM 38.7833 -81.9081 53° Northeast 503 579 35,000  Level Indianapolis Center
Thu 05:17:39 PM 38.8683 -81.7608 53° Northeast 504 580 35,000  Level Indianapolis Center
Thu 05:18:41 PM 38.9531 -81.6136 53° Northeast 504 580 35,000  Level Indianapolis Center
Thu 05:19:43 PM 39.0358 -81.4675 54° Northeast 500 575 35,000  Level Indianapolis Center
Thu 05:20:45 PM 39.1183 -81.3236 54° Northeast 497 572 35,000  Level Indianapolis Center
Thu 05:21:47 PM 39.2172 -81.1483 54° Northeast 500 575 35,000  Level Indianapolis Center
Thu 05:22:49 PM 39.2975 -81.0058 54° Northeast 495 570 35,000  Level Indianapolis Center
Thu 05:23:51 PM 39.3781 -80.8628 54° Northeast 491 565 35,000  Level Indianapolis Center
Thu 05:24:53 PM 39.4578 -80.7200 54° Northeast 489 563 35,000  Level Indianapolis Center
Thu 05:25:55 PM 39.5372 -80.5769 54° Northeast 488 562 35,000  Level Indianapolis Center
Thu 05:26:57 PM 39.6164 -80.4331 54° Northeast 489 563 35,000  Level Indianapolis Center
Thu 05:32:24 PM 40.0646 -79.6144 54° Northeast 499 574 35,000  Level FlightAware ADS-B
Thu 05:33:17 PM 40.1178 -79.5161 54° Northeast 498 573 35,000  Level Cleveland Center
Thu 05:34:19 PM 40.1900 -79.3192 64° Northeast 518 596 35,000  Level Cleveland Center
Thu 05:35:21 PM 40.2539 -79.1608 62° Northeast 498 573 35,000  Level Cleveland Center
Thu 05:36:23 PM 40.3353 -79.0208 53° Northeast 490 564 35,000  Level Cleveland Center
Thu 05:37:25 PM 40.4150 -78.8781 54° Northeast 488 562 35,000  Level Cleveland Center
Thu 05:38:27 PM 40.4950 -78.7403 53° Northeast 483 556 35,000  Level Cleveland Center
Thu 05:39:29 PM 40.5914 -78.5717 53° Northeast 485 558 35,000  Level Cleveland Center
Thu 05:40:31 PM 40.6706 -78.4306 53° Northeast 485 558 35,000  Level Cleveland Center
Thu 05:41:33 PM 40.7492 -78.2897 54° Northeast 484 557 35,000  Level Cleveland Center
Thu 05:42:36 PM 40.8294 -78.1481 53° Northeast 488 562 35,000  Level Cleveland Center
Thu 05:43:38 PM 40.9228 -77.9758 54° Northeast 487 560 35,000  Level Cleveland Center
Thu 05:44:33 PM 40.9814 -77.8436 60° Northeast 488 562 35,000  Level New York Center
Thu 05:45:33 PM 41.0511 -77.6886 59° Northeast 483 556 35,000  Level New York Center
Thu 05:46:33 PM 41.1206 -77.5331 59° Northeast 483 556 35,000  Level New York Center
Thu 05:47:33 PM 41.1919 -77.3747 59° Northeast 490 564 35,000  Level New York Center
Thu 05:48:33 PM 41.2586 -77.2211 60° Northeast 484 557 35,000  Level New York Center
Thu 05:49:33 PM 41.3256 -77.0617 61° Northeast 489 563 35,000  Level New York Center
Thu 05:50:33 PM 41.3942 -76.9078 59° Northeast 484 557 35,000  Level New York Center
Thu 05:52:49 PM 41.5386 -76.5708 60° Northeast 477 549 35,000  Level Boston Center
Thu 05:53:52 PM 41.6181 -76.3831 60° Northeast 477 549 35,000  Level Boston Center
Thu 05:54:53 PM 41.6842 -76.2272 60° Northeast 477 549 35,000  Level Boston Center
Thu 05:55:54 PM 41.7494 -76.0719 61° Northeast 476 548 35,000  Level Boston Center
Thu 05:56:54 PM 41.8144 -75.9172 61° Northeast 475 547 35,000  Level Boston Center
Thu 05:57:58 PM 41.8786 -75.7631 61° Northeast 474 545 35,000  Level Boston Center
Thu 05:58:58 PM 41.9428 -75.6083 61° Northeast 474 545 35,000  Level Boston Center
Thu 06:00:01 PM 42.0067 -75.4539 61° Northeast 473 544 35,000  Level Boston Center
Thu 06:01:02 PM 42.0706 -75.2994 61° Northeast 473 544 35,000 -397 Level Boston Center
Thu 06:02:02 PM 42.1231 -75.1222 68° East 477 549 34,200 -871 Descending Boston Center
Thu 06:03:06 PM 42.1661 -74.9567 71° East 471 542 33,200 -968 Descending Boston Center
Thu 06:04:06 PM 42.2075 -74.7914 71° East 468 539 32,200 -1,041 Descending Boston Center
Thu 06:05:07 PM 42.2561 -74.5936 72° East 464 534 31,100 -919 Descending Boston Center
Thu 06:06:10 PM 42.2972 -74.4253 72° East 461 531 30,300 -1,316 Descending Boston Center
Thu 06:11:39 PM 42.5033 -73.5654 72° East 452 520 22,500 -1,563 Descending FlightAware ADS-B (KSNC)
Thu 06:13:20 PM 42.5795 -73.2405 72° East 418 481 19,100 -1,167 Descending FlightAware ADS-B (KSNC)
Thu 06:14:39 PM 42.6246 -73.0443 73° East 425 489 19,000 -51 Descending FlightAware ADS-B (KSNC)
Thu 06:15:17 PM 42.6352 -72.9982 73° East 424 488 19,000  Level FlightAware ADS-B (KSNC)
Thu 06:15:57 PM 42.6698 -72.8466 73° East 427 491 19,000 -61 Level FlightAware ADS-B (KSNC)
Thu 06:16:55 PM 42.7045 -72.6927 73° East 423 487 18,900 -1,527 Descending FlightAware ADS-B (KSNC)
Thu 06:18:42 PM 42.7634 -72.4295 73° East 397 457 14,800 -2,400 Descending FlightAware ADS-B (KSNC)
Thu 06:19:20 PM 42.7842 -72.3360 73° East 386 444 13,100 -2,200 Descending FlightAware ADS-B (KSNC)
Thu 06:21:12 PM 42.8111 -72.0898 81° East 316 364 9,300 -1,818 Descending FlightAware ADS-B
Thu 06:21:32 PM 42.8141 -72.0511 84° East 299 344 9,100 -900 Descending FlightAware ADS-B
Thu 06:21:52 PM 42.8170 -72.0137 84° East 298 343 8,700 -1,091 Descending FlightAware ADS-B
Thu 06:22:05 PM 42.8188 -71.9886 84° East 296 341 8,500 -600 Descending FlightAware ADS-B
Thu 06:22:22 PM 42.8242 -71.9588 76° East 295 339 8,400 -692 Descending FlightAware ADS-B
Thu 06:22:31 PM 42.8312 -71.9453 55° Northeast 288 331 8,200 -1,161 Descending FlightAware ADS-B
Thu 06:22:53 PM 42.8509 -71.9171 46° Northeast 287 330 7,800 -1,143 Descending FlightAware ADS-B
Thu 06:23:13 PM 42.8694 -71.8911 46° Northeast 284 327 7,400 -1,200 Descending FlightAware ADS-B
Thu 06:23:33 PM 42.8889 -71.8643 45° Northeast 291 335 7,000 -900 Descending FlightAware ADS-B
Thu 06:23:53 PM 42.9077 -71.8396 44° Northeast 279 321 6,800 -900 Descending FlightAware ADS-B
Thu 06:24:13 PM 42.9266 -71.8145 44° Northeast 276 318 6,400 -973 Descending FlightAware ADS-B
Thu 06:24:30 PM 42.9428 -71.7926 45° Northeast 275 316 6,200 -1,050 Descending FlightAware ADS-B
Thu 06:24:53 PM 42.9638 -71.7648 44° Northeast 272 313 5,700 -1,535 Descending FlightAware ADS-B
Thu 06:25:13 PM 42.9815 -71.7411 44° Northeast 272 313 5,100 -1,800 Descending FlightAware ADS-B
Thu 06:25:33 PM 42.9996 -71.7159 46° Northeast 260 299 4,500 -1,950 Descending FlightAware ADS-B
Thu 06:25:53 PM 43.0156 -71.6931 46° Northeast 262 302 3,800 -2,049 Descending FlightAware ADS-B
Thu 06:26:14 PM 43.0335 -71.6671 47° Northeast 260 299 3,100 -1,610 Descending FlightAware ADS-B
Thu 06:26:34 PM 43.0466 -71.6409 56° Northeast 261 300 2,700 -900 Descending FlightAware ADS-B
Thu 06:26:54 PM 43.0537 -71.6099 73° East 248 285 2,500 -600 Descending FlightAware ADS-B
Thu 06:27:14 PM 43.0608 -71.5797 72° East 244 281 2,300 -600 Descending FlightAware ADS-B
Thu 06:27:24 PM 43.0624 -71.5649 82° East 239 275 2,200 -600 Descending FlightAware ADS-B
Thu 06:27:44 PM 43.0601 -71.5357 96° East 227 261 2,000 -486 Descending FlightAware ADS-B
Thu 06:28:01 PM 43.0539 -71.5135 111° Southeast 209 241 1,900 -600 Descending FlightAware ADS-B
Thu 06:28:14 PM 43.0459 -71.5010 131° Southeast 201 231 1,700 -522 Descending FlightAware ADS-B
Thu 06:28:24 PM 43.0384 -71.4962 155° Southeast 190 219 1,700 -600 Level FlightAware ADS-B
Thu 06:28:44 PM 43.0226 -71.4876 158° South 176 203 1,400 -600 Descending FlightAware ADS-B
Thu 06:29:04 PM 43.0090 -71.4793 156° South 145 167 1,300 -600 Descending FlightAware ADS-B
Thu 06:29:24 PM 42.9965 -71.4721 157° South 138 159 1,000 -750 Descending FlightAware ADS-B
Thu 06:29:44 PM 42.9850 -71.4652 156° South 128 147 800 -750 Descending FlightAware ADS-B
Thu 06:30:04 PM 42.9736 -71.4583 156° South 128 147 500 -686 Descending FlightAware ADS-B
Thu 06:30:19 PM 42.9649 -71.4532 157° South 128 147 400 -400 Descending FlightAware ADS-B
Thu 06:38:00 PM 42.9328 -71.4358 316° Northwest  Level Estimated
Thu 06:39:00 PM 42.9328 -71.4358 316° Northwest  Level Estimated
Thu 06:40:00 PM 42.9328 -71.4358 316° Northwest  Level Estimated
Thu 06:41:00 PM 42.9328 -71.4358 316° Northwest  Level Estimated
Thu 06:42:00 PM 42.9328 -71.4358 316° Northwest  Level Estimated
Thu 06:43:00 PM 42.9328 -71.4358 316° Northwest  Level Estimated
Thu 06:44:00 PM 42.9328 -71.4358 316° Northwest  Level Estimated
Thu 06:45:00 PM 42.9328 -71.4358 316° Northwest  Level Estimated
Thu 06:46:00 PM 42.9328 -71.4358 316° Northwest  Level Estimated
Thu 06:47:00 PM 42.9328 -71.4358 316° Northwest  Level Estimated
Thu 06:48:00 PM 42.9328 -71.4358 316° Northwest  Level Estimated
Thu 06:49:00 PM 42.9328 -71.4358 316° Northwest  Level Estimated
Thu 06:50:00 PM 42.9328 -71.4358 316° Northwest  Level Estimated

Login

Don't have an account? Register now (free) for customized features, flight alerts, and more!